Time;durP1;ratioP1;P1;durP2;ratioP2;P2;SDS_P1;SDS_P2;PMS_P1;PMS_P2;Temp;Humidity;BMP_temperature;BMP_pressure;BME280_temperature;BME280_humidity;BME280_pressure;Samples;Min_cycle;Max_cycle;Signal;HPM_P1;HPM_P2
2023/08/23 00:01:11;;;;;;;7.22;6.38;;;;;;;21.97;56.38;95066.69;5113100;27;20024;-73
2023/08/23 00:03:36;;;;;;;7.90;6.85;;;;;;;21.99;55.91;95055.94;5116777;28;20469;-73
2023/08/23 00:06:02;;;;;;;7.25;6.55;;;;;;;22.00;55.97;95071.59;5130281;28;20433;-72
2023/08/23 00:08:27;;;;;;;7.68;6.75;;;;;;;21.70;56.98;95055.06;5113304;28;20034;-72
2023/08/23 00:10:54;;;;;;;7.20;6.50;;;;;;;21.78;56.94;95060.22;5130039;27;20047;-72
2023/08/23 00:13:20;;;;;;;7.15;6.45;;;;;;;21.52;56.98;95049.44;5091755;28;20039;-73
2023/08/23 00:15:45;;;;;;;7.07;6.35;;;;;;;21.40;57.25;95057.84;5109593;28;20035;-72
2023/08/23 00:18:11;;;;;;;7.35;6.65;;;;;;;21.37;57.08;95079.38;5109633;28;20032;-72
2023/08/23 00:20:36;;;;;;;7.88;7.10;;;;;;;21.17;58.46;95075.63;5109705;28;20023;-72
2023/08/23 00:23:01;;;;;;;8.07;6.40;;;;;;;21.26;58.20;95068.44;5107944;28;20039;-72
2023/08/23 00:25:27;;;;;;;8.65;7.07;;;;;;;21.11;58.85;95068.47;5109479;28;20540;-73
2023/08/23 00:27:52;;;;;;;10.10;6.57;;;;;;;21.10;57.90;95062.38;5109659;28;20040;-72
2023/08/23 00:30:18;;;;;;;7.78;7.07;;;;;;;21.15;57.01;95064.47;5125388;28;20076;-72
2023/08/23 00:32:43;;;;;;;7.70;6.88;;;;;;;21.15;57.97;95075.03;5111702;28;20038;-72
2023/08/23 00:35:08;;;;;;;9.35;7.03;;;;;;;21.18;58.51;95069.38;5109297;28;20394;-72
2023/08/23 00:37:34;;;;;;;10.15;7.13;;;;;;;21.20;58.53;95057.63;5112639;28;20042;-73
2023/08/23 00:39:59;;;;;;;8.77;7.28;;;;;;;21.15;58.62;95064.47;5120903;27;20024;-73
2023/08/23 00:42:25;;;;;;;7.97;7.07;;;;;;;20.65;59.99;95068.72;5133843;27;20458;-73
2023/08/23 00:44:50;;;;;;;9.45;6.78;;;;;;;20.93;58.93;95061.78;5133744;27;20027;-72
2023/08/23 00:47:15;;;;;;;8.68;6.57;;;;;;;20.92;59.06;95070.72;5099410;27;20078;-72
2023/08/23 00:49:41;;;;;;;7.45;6.75;;;;;;;21.00;58.94;95066.31;5118849;27;20032;-72
2023/08/23 00:52:07;;;;;;;7.68;6.55;;;;;;;20.81;59.48;95071.19;5096056;28;20032;-73
2023/08/23 00:54:32;;;;;;;7.55;6.80;;;;;;;20.86;58.67;95046.84;5095924;28;20144;-72
2023/08/23 00:56:59;;;;;;;8.48;6.78;;;;;;;20.81;59.17;95068.53;5095991;28;20027;-72
2023/08/23 00:59:25;;;;;;;7.50;6.70;;;;;;;20.82;59.18;95070.16;5117539;27;20043;-72
2023/08/23 01:01:50;;;;;;;7.00;6.30;;;;;;;20.78;59.45;95060.97;5114180;28;20534;-72
2023/08/23 01:04:16;;;;;;;7.43;6.63;;;;;;;20.82;59.50;95069.34;5095749;28;20031;-72
2023/08/23 01:06:46;;;;;;;8.65;7.05;;;;;;;20.87;59.17;95065.16;5113412;27;20032;-72
2023/08/23 01:09:32;;;;;;;7.43;6.55;;;;;;;20.81;59.57;95060.63;5132401;27;20023;-72
2023/08/23 01:12:34;;;;;;;8.13;6.90;;;;;;;20.68;59.68;95063.09;5097187;27;20047;-71
2023/08/23 01:15:07;;;;;;;6.90;6.22;;;;;;;20.64;59.59;95061.78;5132967;27;20066;-72
2023/08/23 01:17:33;;;;;;;7.88;6.85;;;;;;;20.72;59.60;95059.88;5122190;27;20030;-72
2023/08/23 01:19:58;;;;;;;7.85;7.13;;;;;;;20.60;59.74;95060.53;5142059;27;20039;-72
2023/08/23 01:22:24;;;;;;;9.50;7.28;;;;;;;20.53;59.92;95055.16;5114906;27;20431;-72
2023/08/23 01:24:49;;;;;;;7.13;6.45;;;;;;;20.57;60.45;95064.34;5112992;27;20035;-72
2023/08/23 01:27:16;;;;;;;7.57;6.60;;;;;;;20.64;60.23;95059.97;5130069;27;20106;-72
2023/08/23 01:29:43;;;;;;;7.40;6.70;;;;;;;20.57;60.38;95055.63;5130909;27;20023;-72
2023/08/23 01:32:30;;;;;;;8.18;6.97;;;;;;;20.61;59.93;95067.44;5131918;27;20032;-72
2023/08/23 01:34:56;;;;;;;7.95;7.13;;;;;;;20.45;60.27;95057.88;5129535;27;20023;-72
2023/08/23 01:37:23;;;;;;;8.10;7.35;;;;;;;20.38;60.48;95055.13;5132009;27;20038;-72
2023/08/23 01:39:49;;;;;;;8.32;6.90;;;;;;;20.40;60.79;95055.78;5108904;27;20465;-72
2023/08/23 01:42:15;;;;;;;9.52;6.55;;;;;;;20.14;61.48;95061.47;5102951;27;20031;-72
2023/08/23 01:44:43;;;;;;;8.48;6.80;;;;;;;20.38;60.76;95067.50;5104875;28;20159;-72
2023/08/23 01:47:09;;;;;;;9.07;6.78;;;;;;;20.33;60.99;95054.03;5111420;28;20497;-72
2023/08/23 01:49:34;;;;;;;8.07;6.80;;;;;;;20.30;60.88;95047.31;5094218;28;20089;-72
2023/08/23 01:51:59;;;;;;;7.05;6.35;;;;;;;20.55;61.21;95058.44;5111488;28;20044;-72
2023/08/23 01:54:25;;;;;;;7.28;6.57;;;;;;;20.44;60.81;95059.69;5131089;27;20424;-72
2023/08/23 01:56:50;;;;;;;9.13;7.30;;;;;;;20.42;60.77;95052.94;5132317;27;20030;-72
2023/08/23 01:59:16;;;;;;;8.70;7.07;;;;;;;20.44;60.71;95058.88;5131139;27;20040;-72
2023/08/23 02:01:41;;;;;;;7.22;6.53;;;;;;;20.54;60.32;95056.81;5116068;27;20099;-72
2023/08/23 02:04:07;;;;;;;7.88;6.82;;;;;;;20.50;59.72;95051.06;5132333;27;20039;-72
2023/08/23 02:06:32;;;;;;;7.18;6.47;;;;;;;20.38;59.85;95038.50;5132157;27;20378;-72
2023/08/23 02:08:57;;;;;;;7.63;6.90;;;;;;;20.63;59.78;95054.88;5133250;27;20035;-72
2023/08/23 02:11:23;;;;;;;7.28;6.55;;;;;;;20.60;59.93;95061.34;5129608;27;20054;-73
2023/08/23 02:13:48;;;;;;;7.63;6.63;;;;;;;20.66;60.11;95057.16;5114053;27;20107;-72
2023/08/23 02:16:13;;;;;;;7.25;6.55;;;;;;;20.40;60.59;95032.03;5114742;27;20545;-72
2023/08/23 02:18:39;;;;;;;7.55;6.85;;;;;;;20.67;60.09;95056.16;5133038;27;20039;-72
2023/08/23 02:21:04;;;;;;;7.20;6.50;;;;;;;20.75;59.68;95045.50;5102297;28;20031;-72
2023/08/23 02:23:30;;;;;;;7.60;6.78;;;;;;;20.82;59.00;95051.69;5113749;27;20028;-72
2023/08/23 02:25:55;;;;;;;7.80;6.93;;;;;;;20.85;58.93;95051.31;5112432;27;20482;-72
2023/08/23 02:28:21;;;;;;;7.90;7.20;;;;;;;20.77;59.12;95055.88;5094001;28;20092;-72
2023/08/23 02:30:46;;;;;;;7.80;7.03;;;;;;;20.76;59.34;95055.06;5128647;27;20042;-72
2023/08/23 02:33:12;;;;;;;7.45;6.75;;;;;;;20.68;59.39;95041.97;5131511;27;20042;-72
2023/08/23 02:35:43;;;;;;;7.35;6.65;;;;;;;20.87;59.33;95057.22;5097339;27;20030;-72
2023/08/23 02:38:08;;;;;;;8.00;7.20;;;;;;;20.83;59.31;95044.56;5129963;27;20042;-72
2023/08/23 02:40:34;;;;;;;7.57;6.88;;;;;;;20.72;59.11;95037.94;5130440;27;20030;-72
2023/08/23 02:43:00;;;;;;;7.97;7.07;;;;;;;20.79;58.95;95044.13;5114559;27;20039;-72
2023/08/23 02:45:25;;;;;;;8.18;7.38;;;;;;;20.79;59.18;95038.84;5131304;27;20511;-72
2023/08/23 02:47:50;;;;;;;7.70;7.00;;;;;;;20.81;58.81;95046.56;5128899;27;20023;-72
2023/08/23 02:50:16;;;;;;;8.68;7.20;;;;;;;20.80;58.47;95035.22;5132817;27;20031;-72
2023/08/23 02:52:41;;;;;;;8.38;7.32;;;;;;;21.00;58.13;95042.53;5113986;27;20035;-72
2023/08/23 02:55:07;;;;;;;8.23;7.43;;;;;;;21.01;58.00;95041.56;5131114;27;20430;-72
2023/08/23 02:57:32;;;;;;;9.27;7.60;;;;;;;21.15;57.58;95054.72;5129028;27;20042;-72
2023/08/23 02:59:58;;;;;;;7.80;6.85;;;;;;;20.96;57.67;95018.34;5122619;27;20024;-72
2023/08/23 03:02:23;;;;;;;9.10;6.95;;;;;;;21.11;57.78;95060.53;5093553;28;20463;-72
2023/08/23 03:04:48;;;;;;;8.35;6.53;;;;;;;21.14;57.82;95053.06;5110501;28;20042;-72
2023/08/23 03:07:14;;;;;;;11.02;7.22;;;;;;;21.09;57.85;95055.47;5127809;27;20031;-72
2023/08/23 03:09:39;;;;;;;7.70;6.88;;;;;;;21.16;57.72;95058.16;5096659;27;20062;-72
2023/08/23 03:12:05;;;;;;;7.35;6.55;;;;;;;21.26;57.38;95050.78;5113861;27;20035;-72
2023/08/23 03:14:30;;;;;;;8.30;7.40;;;;;;;21.39;57.99;95055.38;5129576;27;20027;-72
2023/08/23 03:16:56;;;;;;;7.68;6.88;;;;;;;21.26;58.11;95040.19;5129896;27;20080;-72
2023/08/23 03:19:21;;;;;;;7.85;7.05;;;;;;;21.26;58.38;95065.81;5131969;27;20117;-72
2023/08/23 03:21:46;;;;;;;8.50;7.18;;;;;;;21.09;58.35;95030.84;5113753;27;20425;-72
2023/08/23 03:24:12;;;;;;;9.68;7.10;;;;;;;21.02;58.49;95038.72;5128235;27;20034;-72
2023/08/23 03:26:37;;;;;;;8.43;7.53;;;;;;;20.95;58.79;95054.50;5113562;27;20027;-72
2023/08/23 03:29:03;;;;;;;7.63;6.93;;;;;;;20.97;59.14;95052.47;5130666;27;20088;-72
2023/08/23 03:31:28;;;;;;;9.02;6.97;;;;;;;20.86;58.72;95034.47;5130619;27;20496;-72
2023/08/23 03:33:54;;;;;;;8.52;7.43;;;;;;;20.58;59.68;95038.78;5128325;27;20035;-72
2023/08/23 03:36:19;;;;;;;8.25;7.32;;;;;;;20.69;59.90;95046.22;5130539;27;20042;-72
2023/08/23 03:38:44;;;;;;;7.88;7.03;;;;;;;20.64;60.14;95048.59;5130479;27;20028;-72
2023/08/23 03:41:13;;;;;;;8.38;7.57;;;;;;;20.63;60.17;95039.06;5131831;27;20508;-72
2023/08/23 03:43:39;;;;;;;7.95;6.93;;;;;;;20.70;59.73;95046.06;5108641;28;20032;-72
2023/08/23 03:46:04;;;;;;;8.38;7.60;;;;;;;20.80;59.31;95043.13;5093047;28;20024;-72
2023/08/23 03:48:30;;;;;;;8.38;7.57;;;;;;;20.89;59.10;95049.13;5092813;28;20386;-72
2023/08/23 03:50:59;;;;;;;8.40;7.63;;;;;;;20.89;58.82;95041.19;5094479;28;20019;-72
2023/08/23 03:53:25;;;;;;;8.13;7.32;;;;;;;20.97;58.77;95047.19;5108995;28;20096;-72
2023/08/23 03:55:58;;;;;;;8.90;7.97;;;;;;;20.94;59.03;95052.84;5127045;28;20053;-72
2023/08/23 03:58:23;;;;;;;8.68;7.47;;;;;;;21.07;58.50;95054.81;5109730;28;20028;-72
2023/08/23 04:00:52;;;;;;;8.48;7.57;;;;;;;20.85;58.83;95038.13;5119874;28;20027;-72
2023/08/23 04:03:17;;;;;;;10.13;7.18;;;;;;;21.02;58.75;95048.47;5109739;28;20039;-72
2023/08/23 04:05:43;;;;;;;8.80;7.93;;;;;;;21.00;58.66;95042.53;5075894;28;20027;-72
2023/08/23 04:08:08;;;;;;;8.50;7.70;;;;;;;20.96;58.52;95035.00;5109693;28;20050;-72
2023/08/23 04:10:34;;;;;;;8.50;7.70;;;;;;;20.97;58.79;95049.00;5119161;27;20043;-72
2023/08/23 04:13:00;;;;;;;9.15;8.25;;;;;;;20.93;58.59;95030.09;5117114;27;20027;-72
2023/08/23 04:15:25;;;;;;;8.43;7.60;;;;;;;20.89;58.77;95036.72;5134155;27;20500;-72
2023/08/23 04:17:50;;;;;;;12.55;7.38;;;;;;;21.12;58.16;95047.16;5116653;27;20481;-72
2023/08/23 04:20:16;;;;;;;8.70;7.80;;;;;;;21.14;58.16;95025.84;5132475;27;20023;-72
2023/08/23 04:22:41;;;;;;;8.77;7.88;;;;;;;21.24;57.86;95041.41;5117126;27;20034;-72
2023/08/23 04:25:07;;;;;;;9.98;7.50;;;;;;;21.31;57.77;95047.53;5135330;27;20294;-72
2023/08/23 04:27:33;;;;;;;9.25;7.82;;;;;;;21.21;58.10;95037.31;5098694;27;20023;-72
2023/08/23 04:29:58;;;;;;;8.15;7.30;;;;;;;21.17;58.20;95034.22;5099604;27;20054;-72
2023/08/23 04:32:24;;;;;;;8.30;7.43;;;;;;;21.32;57.95;95050.00;5116864;27;20035;-72
2023/08/23 04:34:49;;;;;;;10.68;8.15;;;;;;;21.26;58.60;95056.06;5133998;27;20503;-72
2023/08/23 04:37:17;;;;;;;10.13;8.23;;;;;;;21.16;59.01;95055.53;5131355;27;20426;-72
2023/08/23 04:39:43;;;;;;;8.98;8.18;;;;;;;21.10;59.71;95048.34;5133863;27;20040;-72
2023/08/23 04:42:08;;;;;;;11.95;9.35;;;;;;;21.03;60.07;95044.81;5135251;27;20031;-72
2023/08/23 04:44:34;;;;;;;10.68;9.50;;;;;;;21.17;60.08;95051.88;5116514;27;20405;-72
2023/08/23 04:46:59;;;;;;;10.63;9.63;;;;;;;21.02;60.08;95032.63;5131401;27;20401;-72
2023/08/23 04:49:24;;;;;;;11.18;9.57;;;;;;;21.14;60.20;95053.06;5133624;27;20031;-72
2023/08/23 04:51:50;;;;;;;10.98;9.80;;;;;;;21.32;60.20;95065.06;5133704;27;20023;-72
2023/08/23 04:54:15;;;;;;;9.82;8.82;;;;;;;21.77;59.02;95069.19;5116326;27;20595;-72
2023/08/23 04:56:41;;;;;;;12.52;9.55;;;;;;;21.75;58.16;95042.09;5124293;27;20027;-72
2023/08/23 04:59:06;;;;;;;10.05;8.98;;;;;;;22.25;57.10;95071.22;5130070;27;20038;-72
2023/08/23 05:01:31;;;;;;;10.80;9.48;;;;;;;22.56;56.13;95076.09;5136840;27;20019;-72
2023/08/23 05:03:57;;;;;;;13.55;9.20;;;;;;;22.85;55.27;95074.22;5144760;27;20088;-72
2023/08/23 05:06:22;;;;;;;11.35;9.18;;;;;;;23.07;54.40;95065.19;5127321;27;20073;-72
2023/08/23 05:08:48;;;;;;;9.30;8.23;;;;;;;23.30;54.13;95066.66;5133152;27;20054;-72
2023/08/23 05:11:13;;;;;;;11.60;8.52;;;;;;;23.60;53.28;95065.31;5112559;27;20039;-72
2023/08/23 05:13:38;;;;;;;10.98;8.63;;;;;;;23.84;52.73;95053.31;5130289;27;20088;-72
2023/08/23 05:16:04;;;;;;;12.98;8.35;;;;;;;24.02;52.25;95062.53;5131776;27;20035;-72
2023/08/23 05:18:29;;;;;;;9.32;8.30;;;;;;;23.68;52.41;95066.13;5131617;27;20150;-72
2023/08/23 05:20:55;;;;;;;9.80;8.00;;;;;;;23.94;51.88;95044.97;5132183;27;20080;-72
2023/08/23 05:23:21;;;;;;;11.75;8.15;;;;;;;24.24;50.61;95061.28;5107219;27;20044;-75
2023/08/23 05:25:47;;;;;;;11.50;8.55;;;;;;;24.27;51.53;95054.75;5077744;28;20548;-75
2023/08/23 05:28:12;;;;;;;11.82;8.77;;;;;;;24.24;51.34;95063.94;5132242;27;20020;-75
2023/08/23 05:30:39;;;;;;;13.23;9.07;;;;;;;24.30;51.00;95064.97;5131062;27;20020;-75
2023/08/23 05:33:04;;;;;;;8.88;8.05;;;;;;;24.66;50.00;95053.06;5112906;27;20473;-74
2023/08/23 05:35:30;;;;;;;12.82;8.73;;;;;;;24.95;49.58;95051.75;5113980;27;20042;-74
2023/08/23 05:37:55;;;;;;;12.25;8.60;;;;;;;24.69;50.08;95058.78;5135833;27;20023;-75
2023/08/23 05:40:21;;;;;;;10.75;8.68;;;;;;;24.65;50.06;95051.44;5109910;27;20039;-75
2023/08/23 05:42:46;;;;;;;9.95;8.88;;;;;;;24.92;49.38;95052.16;5132938;27;20422;-74
2023/08/23 05:45:11;;;;;;;12.70;9.02;;;;;;;24.88;49.49;95046.47;5132255;27;20027;-74
2023/08/23 05:47:37;;;;;;;10.25;8.32;;;;;;;25.15;48.85;95049.84;5131504;27;20034;-75
2023/08/23 05:50:03;;;;;;;9.57;8.48;;;;;;;25.21;49.32;95053.47;5102532;27;20039;-74
2023/08/23 05:52:29;;;;;;;8.82;7.97;;;;;;;25.27;48.61;95042.03;5101878;28;20040;-75
2023/08/23 05:54:54;;;;;;;10.68;8.52;;;;;;;25.52;47.67;95035.94;5116129;27;20023;-75
2023/08/23 05:57:22;;;;;;;9.43;8.30;;;;;;;25.70;47.47;95051.19;5119258;27;20508;-75
2023/08/23 05:59:48;;;;;;;12.90;9.15;;;;;;;25.71;47.48;95040.31;5107050;28;20036;-75
2023/08/23 06:02:13;;;;;;;9.25;8.13;;;;;;;25.85;46.83;95055.19;5099126;27;20170;-75
2023/08/23 06:04:39;;;;;;;8.90;8.00;;;;;;;25.92;45.65;95047.16;5114704;27;20027;-75
2023/08/23 06:07:05;;;;;;;9.32;7.57;;;;;;;26.11;46.10;95047.22;5106474;28;20474;-74
2023/08/23 06:09:32;;;;;;;9.35;8.35;;;;;;;25.79;46.75;95037.38;5119968;27;20069;-74
2023/08/23 06:11:59;;;;;;;11.77;8.63;;;;;;;25.74;47.69;95045.22;5131851;27;20027;-73
2023/08/23 06:14:24;;;;;;;16.35;9.55;;;;;;;25.61;48.68;95045.31;5112037;27;20035;-73
2023/08/23 06:16:50;;;;;;;10.20;9.02;;;;;;;25.48;48.77;95046.19;5121322;27;20390;-74
2023/08/23 06:19:15;;;;;;;17.40;8.82;;;;;;;25.48;48.86;95048.84;5116747;27;20430;-74
2023/08/23 06:21:41;;;;;;;12.82;9.20;;;;;;;25.49;49.24;95041.69;5118672;27;20026;-72
2023/08/23 06:24:07;;;;;;;12.93;8.93;;;;;;;25.39;49.57;95048.28;5114699;27;20058;-72
2023/08/23 06:26:33;;;;;;;15.60;9.27;;;;;;;25.48;49.25;95048.03;5113736;27;20074;-72
2023/08/23 06:28:58;;;;;;;10.48;8.63;;;;;;;25.99;47.81;95047.94;5113713;27;20027;-72
2023/08/23 06:31:23;;;;;;;16.35;8.95;;;;;;;25.79;47.98;95032.06;5112470;27;20034;-72
2023/08/23 06:33:49;;;;;;;11.85;8.90;;;;;;;25.87;48.00;95040.84;5113688;27;20031;-72
2023/08/23 06:36:14;;;;;;;12.00;8.93;;;;;;;25.78;48.37;95051.72;5132591;27;20171;-72
2023/08/23 06:38:43;;;;;;;11.68;8.98;;;;;;;25.68;48.25;95050.56;5132714;27;20031;-72
2023/08/23 06:41:09;;;;;;;12.32;9.23;;;;;;;25.65;48.61;95041.16;5132590;27;20038;-72
2023/08/23 06:43:34;;;;;;;13.30;9.32;;;;;;;25.76;48.12;95043.13;5097191;27;20027;-72
2023/08/23 06:46:01;;;;;;;10.50;9.20;;;;;;;25.89;47.98;95049.44;5113876;27;20027;-72
2023/08/23 06:48:26;;;;;;;13.90;9.20;;;;;;;25.90;47.83;95043.88;5112859;27;20063;-72
2023/08/23 06:50:52;;;;;;;11.93;9.20;;;;;;;26.07;47.17;95025.53;5132185;27;20062;-72
2023/08/23 06:53:17;;;;;;;11.82;8.95;;;;;;;26.17;47.33;95046.34;5097051;27;20039;-73
2023/08/23 06:55:42;;;;;;;9.73;8.63;;;;;;;26.39;47.07;95044.91;5131080;27;20038;-73
2023/08/23 06:58:08;;;;;;;9.15;8.13;;;;;;;26.92;46.09;95043.56;5113994;27;20038;-71
2023/08/23 07:00:34;;;;;;;9.45;8.25;;;;;;;27.10;45.58;95032.03;5131115;27;20063;-71
2023/08/23 07:03:00;;;;;;;10.48;8.57;;;;;;;27.11;44.86;95039.81;5114208;27;20038;-71
2023/08/23 07:05:25;;;;;;;10.20;8.75;;;;;;;27.03;44.99;95040.13;5130970;27;20023;-71
2023/08/23 07:07:51;;;;;;;10.52;8.90;;;;;;;27.17;44.67;95038.16;5114041;27;20076;-71
2023/08/23 07:10:16;;;;;;;10.38;9.10;;;;;;;27.31;44.27;95044.94;5130815;27;20059;-71
2023/08/23 07:12:42;;;;;;;9.43;8.35;;;;;;;27.53;44.23;95045.25;5131129;27;20030;-71
2023/08/23 07:15:07;;;;;;;11.02;8.50;;;;;;;27.32;44.79;95032.41;5132093;27;20031;-71
2023/08/23 07:17:34;;;;;;;10.48;9.48;;;;;;;27.29;44.36;95024.84;5130929;27;20027;-71
2023/08/23 07:20:00;;;;;;;10.45;8.98;;;;;;;27.34;44.78;95039.16;5132030;27;20076;-71
2023/08/23 07:22:25;;;;;;;11.70;9.45;;;;;;;27.34;44.76;95033.81;5130928;27;20412;-71
2023/08/23 07:24:50;;;;;;;10.98;9.35;;;;;;;27.62;44.00;95035.88;5132025;27;20024;-71
2023/08/23 07:27:16;;;;;;;11.68;8.93;;;;;;;27.71;43.03;95039.03;5130675;27;20428;-71
2023/08/23 07:29:41;;;;;;;10.38;9.10;;;;;;;27.79;43.00;95043.22;5130785;27;20076;-71
2023/08/23 07:32:07;;;;;;;12.90;8.95;;;;;;;27.90;43.29;95039.78;5130748;27;20031;-71
2023/08/23 07:34:33;;;;;;;11.85;9.60;;;;;;;27.94;43.09;95032.94;5130605;27;20423;-71
2023/08/23 07:36:58;;;;;;;10.85;8.85;;;;;;;27.97;42.36;95037.84;5132018;27;20080;-71
2023/08/23 07:39:24;;;;;;;12.52;9.40;;;;;;;28.20;41.81;95037.06;5130479;27;20039;-71
2023/08/23 07:41:50;;;;;;;10.68;8.70;;;;;;;28.54;40.91;95031.97;5132011;27;20485;-71
2023/08/23 07:44:15;;;;;;;13.88;8.95;;;;;;;28.25;41.51;95020.31;5130514;28;20108;-71
2023/08/23 07:46:41;;;;;;;10.40;8.93;;;;;;;28.11;41.85;95018.91;5135488;27;20031;-71
2023/08/23 07:49:06;;;;;;;13.35;9.48;;;;;;;28.10;42.43;95022.66;5135977;27;20027;-71
2023/08/23 07:51:32;;;;;;;13.52;9.02;;;;;;;28.18;42.01;95032.97;5117681;27;20031;-71
2023/08/23 07:53:57;;;;;;;11.48;8.93;;;;;;;28.16;42.37;95027.84;5117622;27;20027;-71
2023/08/23 07:56:22;;;;;;;10.57;8.95;;;;;;;28.33;42.53;95021.81;5117409;27;20039;-71
2023/08/23 07:58:48;;;;;;;10.40;9.20;;;;;;;28.79;41.44;95015.66;5100391;27;20034;-71
2023/08/23 08:01:13;;;;;;;9.95;8.98;;;;;;;28.78;41.68;95015.88;5117503;27;20033;-71
2023/08/23 08:03:39;;;;;;;12.70;9.43;;;;;;;28.78;41.50;95027.41;5136021;27;20488;-72
2023/08/23 08:06:05;;;;;;;13.32;9.70;;;;;;;28.89;41.73;95023.91;5134447;27;20041;-71
2023/08/23 08:08:30;;;;;;;11.60;8.93;;;;;;;28.85;40.98;95014.72;5117532;27;20038;-71
2023/08/23 08:10:55;;;;;;;10.98;8.98;;;;;;;28.98;40.86;95021.66;5117125;27;20039;-71
2023/08/23 08:13:21;;;;;;;11.88;9.07;;;;;;;29.06;40.77;95017.81;5117228;27;20092;-71
2023/08/23 08:15:46;;;;;;;11.48;9.35;;;;;;;29.15;40.51;95011.88;5135378;27;20051;-71
2023/08/23 08:18:12;;;;;;;16.48;9.40;;;;;;;29.12;40.17;95019.56;5134162;27;20034;-71
2023/08/23 08:20:37;;;;;;;10.07;9.07;;;;;;;29.66;39.22;95005.84;5135555;27;20080;-71
2023/08/23 08:23:03;;;;;;;11.85;9.82;;;;;;;29.60;39.39;95010.28;5117297;27;20031;-71
2023/08/23 08:25:28;;;;;;;11.25;8.95;;;;;;;29.61;40.16;95003.84;5134048;27;20039;-71
2023/08/23 08:27:54;;;;;;;11.40;8.82;;;;;;;29.79;39.50;95009.03;5135795;27;20084;-71
2023/08/23 08:30:19;;;;;;;12.05;9.13;;;;;;;29.93;38.98;95009.53;5116936;27;20091;-71
2023/08/23 08:32:44;;;;;;;10.23;8.88;;;;;;;29.93;38.79;95006.03;5134195;27;20098;-71
2023/08/23 08:35:10;;;;;;;10.20;9.20;;;;;;;30.16;37.92;95003.16;5133975;27;20420;-71
2023/08/23 08:37:36;;;;;;;11.07;8.25;;;;;;;30.08;38.63;94998.22;5116722;27;20034;-71
2023/08/23 08:40:01;;;;;;;12.50;9.05;;;;;;;30.27;37.82;94999.63;5133870;27;20031;-71
2023/08/23 08:42:28;;;;;;;12.55;8.73;;;;;;;30.52;37.57;95002.91;5133941;27;20026;-71
2023/08/23 08:44:54;;;;;;;12.35;8.65;;;;;;;30.41;37.38;94991.25;5133812;27;20039;-72
2023/08/23 08:47:19;;;;;;;10.82;8.82;;;;;;;30.52;37.42;95002.91;5116621;27;20035;-71
2023/08/23 08:49:45;;;;;;;10.10;8.43;;;;;;;30.91;37.56;94999.16;5116610;27;20046;-71
2023/08/23 08:52:12;;;;;;;9.60;8.80;;;;;;;31.27;36.42;94993.41;5116448;27;20030;-71
2023/08/23 08:54:37;;;;;;;10.85;8.65;;;;;;;31.07;36.44;94997.47;5116420;27;20058;-72
2023/08/23 08:57:03;;;;;;;10.38;8.25;;;;;;;31.33;36.00;94995.06;5115526;27;20516;-72
2023/08/23 08:59:28;;;;;;;8.27;7.47;;;;;;;31.59;34.51;94988.94;5133734;27;20416;-71
2023/08/23 09:01:54;;;;;;;9.02;8.07;;;;;;;31.74;34.41;94984.75;5116462;27;20038;-71
2023/08/23 09:04:19;;;;;;;9.82;8.20;;;;;;;31.86;34.31;94973.84;5133342;27;20113;-71
2023/08/23 09:06:45;;;;;;;8.80;7.90;;;;;;;32.15;32.58;94977.03;5133425;27;20030;-71
2023/08/23 09:09:11;;;;;;;9.45;8.00;;;;;;;32.27;32.97;94977.66;5133221;27;20039;-71
2023/08/23 09:11:36;;;;;;;8.95;8.05;;;;;;;32.22;34.05;94983.81;5116282;27;20059;-72
2023/08/23 09:14:32;;;;;;;9.60;7.90;;;;;;;32.26;33.68;94954.53;5134396;27;20034;-71
2023/08/23 09:16:57;;;;;;;8.43;7.63;;;;;;;32.49;32.95;94961.44;5102993;27;20046;-71
2023/08/23 09:19:22;;;;;;;8.63;7.75;;;;;;;32.45;32.53;94938.78;5115863;27;20520;-71
2023/08/23 09:21:50;;;;;;;8.55;7.55;;;;;;;32.59;32.18;94961.47;5114888;27;20035;-71
2023/08/23 09:24:16;;;;;;;7.85;7.18;;;;;;;32.79;32.19;94955.38;5114038;27;20496;-71
2023/08/23 09:26:43;;;;;;;8.57;7.78;;;;;;;32.42;34.03;94955.44;5130875;27;20051;-72
2023/08/23 09:29:08;;;;;;;7.97;7.20;;;;;;;32.57;31.49;94957.41;5130740;27;20672;-71
2023/08/23 09:31:34;;;;;;;9.65;7.00;;;;;;;32.40;31.16;94947.66;5132044;27;20038;-72
2023/08/23 09:34:00;;;;;;;7.35;6.65;;;;;;;32.44;31.45;94946.03;5130755;27;20031;-71
2023/08/23 09:36:29;;;;;;;7.30;6.63;;;;;;;32.57;30.74;94947.50;5131309;27;20457;-71
2023/08/23 09:38:56;;;;;;;8.02;7.10;;;;;;;32.24;31.68;94932.50;5132672;27;20424;-72
2023/08/23 09:41:24;;;;;;;10.13;6.90;;;;;;;32.01;31.69;94937.19;5115604;27;20042;-71
2023/08/23 09:43:52;;;;;;;8.00;6.25;;;;;;;32.05;31.23;94932.91;5115510;27;20062;-71
2023/08/23 09:46:19;;;;;;;7.80;7.00;;;;;;;31.65;31.85;94938.78;5115323;27;20031;-71
2023/08/23 09:48:44;;;;;;;8.82;6.47;;;;;;;31.67;31.73;94930.44;5115528;27;20035;-71
2023/08/23 09:51:10;;;;;;;7.38;6.55;;;;;;;31.77;31.85;94938.59;5115261;27;20481;-71
2023/08/23 09:53:35;;;;;;;8.00;6.57;;;;;;;31.78;30.91;94929.47;5098299;27;20076;-71
2023/08/23 09:56:02;;;;;;;6.90;5.72;;;;;;;31.67;29.96;94928.56;5115240;27;20170;-71
2023/08/23 09:58:27;;;;;;;8.70;6.40;;;;;;;31.60;31.63;94918.06;5115436;27;20035;-71
2023/08/23 10:00:54;;;;;;;8.55;6.28;;;;;;;31.97;30.21;94909.22;5133467;27;20443;-71
2023/08/23 10:03:19;;;;;;;7.28;6.55;;;;;;;32.07;31.13;94921.94;5115148;27;20567;-72
2023/08/23 10:05:45;;;;;;;8.05;6.10;;;;;;;32.02;31.07;94911.94;5133343;27;20028;-71
2023/08/23 10:08:10;;;;;;;11.55;7.35;;;;;;;32.09;30.75;94913.59;5097458;27;20083;-71
2023/08/23 10:10:36;;;;;;;7.47;6.65;;;;;;;32.02;30.78;94909.25;5114197;27;20047;-71
2023/08/23 10:13:05;;;;;;;8.02;6.82;;;;;;;31.95;30.66;94914.03;5115155;27;20412;-71
2023/08/23 10:15:32;;;;;;;7.78;6.45;;;;;;;32.11;29.75;94906.88;5098606;27;20030;-71
2023/08/23 10:17:58;;;;;;;7.07;6.38;;;;;;;31.90;29.84;94911.31;5132038;27;20059;-72
2023/08/23 10:20:24;;;;;;;8.02;6.25;;;;;;;31.87;30.33;94908.31;5114796;27;20469;-72
2023/08/23 10:22:55;;;;;;;7.90;6.38;;;;;;;32.05;29.03;94898.00;5131779;27;20027;-71
2023/08/23 10:25:21;;;;;;;8.98;6.40;;;;;;;31.94;30.29;94890.13;5115183;27;20058;-72
2023/08/23 10:27:48;;;;;;;10.40;9.40;;;;;;;31.85;30.23;94867.50;5131824;27;20031;-71
2023/08/23 10:30:24;;;;;;;19.25;13.00;;;;;;;32.17;29.68;94894.28;5097785;27;20031;-71
2023/08/23 10:32:50;;;;;;;10.73;6.53;;;;;;;32.15;29.02;94899.94;5131832;27;20458;-71
2023/08/23 10:35:29;;;;;;;7.82;6.38;;;;;;;32.25;28.64;94883.88;5114541;27;20025;-72
2023/08/23 10:37:55;;;;;;;7.95;6.15;;;;;;;32.12;29.23;94870.88;5097600;27;20461;-71
2023/08/23 10:40:21;;;;;;;7.60;6.10;;;;;;;32.64;28.41;94896.16;5097501;27;20023;-71
2023/08/23 10:42:48;;;;;;;9.05;6.35;;;;;;;32.48;28.94;94887.22;5114579;27;20054;-71
2023/08/23 10:45:14;;;;;;;9.98;6.60;;;;;;;32.20;29.56;94893.78;5097405;27;20464;-71
2023/08/23 10:47:39;;;;;;;9.75;6.88;;;;;;;32.07;29.83;94886.16;5131480;27;20027;-69
2023/08/23 10:50:05;;;;;;;7.05;6.45;;;;;;;32.32;29.79;94888.19;5131403;27;20506;-69
2023/08/23 10:52:30;;;;;;;6.70;6.10;;;;;;;32.26;28.58;94880.13;5132804;27;20530;-69
2023/08/23 10:54:56;;;;;;;8.13;6.28;;;;;;;32.36;28.15;94879.34;5131246;27;20031;-69
2023/08/23 10:57:22;;;;;;;8.45;6.15;;;;;;;32.29;28.69;94868.03;5131001;27;20038;-69
2023/08/23 10:59:47;;;;;;;6.43;5.85;;;;;;;32.10;29.76;94872.25;5131225;27;20409;-69
2023/08/23 11:02:12;;;;;;;6.75;6.00;;;;;;;31.97;28.86;94863.56;5132644;27;20035;-69
2023/08/23 11:04:38;;;;;;;7.00;6.00;;;;;;;32.02;28.75;94874.34;5132308;27;20031;-69
2023/08/23 11:07:03;;;;;;;8.52;5.82;;;;;;;32.13;28.34;94875.22;5131138;27;20031;-69
2023/08/23 11:09:29;;;;;;;8.55;6.00;;;;;;;32.13;29.46;94872.53;5130718;27;20076;-69
2023/08/23 11:11:54;;;;;;;9.35;6.05;;;;;;;31.34;31.27;94875.94;5131100;27;20027;-69
2023/08/23 11:14:19;;;;;;;8.13;6.10;;;;;;;31.48;31.74;94879.88;5132076;27;20481;-69
2023/08/23 11:16:45;;;;;;;7.47;6.63;;;;;;;31.35;32.22;94877.56;5132228;27;20054;-70
2023/08/23 11:19:11;;;;;;;12.13;6.88;;;;;;;31.27;32.21;94869.97;5130745;27;20569;-70
2023/08/23 11:21:37;;;;;;;9.23;6.00;;;;;;;31.24;31.78;94881.22;5096588;27;20034;-69
2023/08/23 11:24:03;;;;;;;9.85;6.00;;;;;;;31.28;31.71;94850.13;5113950;27;20023;-70
2023/08/23 11:26:31;;;;;;;12.18;5.60;;;;;;;31.36;30.87;94871.16;5130786;27;20030;-70